Skip Navigation Links
NOAA logo - Click to go to the NOAA homepage
NOAA's National Weather Service
Alaska Aviation Weather Unit
  NWS logo - Click to go to the NWS homepage
Left Navbar Graphic     02 AKDT = 10 GMT

   
NOAA is celebrating 200 years of science, service, and stewardship. Visit the NOAA 200th celebration Web site to learn more.
USA.gov is the U.S. Government's official Web portal to all Federal, state and local government Web resources and services.
Facebook
NWS on Facebook

AAWU Home :: Display TAF Add Bookmark
TAF PAUN 270520Z 2706/2806 12003KT P6SM SKC
     FM270800 08006KT P6SM SKC=
METAR PAUN 270456Z AUTO 12003KT 10SM CLR M16/M20 A2988 RMK AO2 SLP123
     T11611200 FZRANO=

METAR PAUN 270556Z AUTO 11005KT 10SM CLR M18/M19 A2987 RMK AO2 SLP120
     T11781194 11122 21178 58005 FZRANO=

METAR PAUN 270656Z AUTO 10006KT 10SM CLR M18/M20 A2987 RMK AO2
 SLP120 T11831200 FZRANO=

METAR PAUN 270756Z AUTO 11004KT 10SM CLR M18/M19 A2987 RMK AO2 SLP121
     T11781194 FZRANO=

METAR PAUN 270956Z AUTO 00000KT 10SM CLR M22/M24 A2986 RMK AO2 SLP117
     T12171239 FZRANO=


NOAA's National Weather Service
Alaska Aviation Weather Unit
6930 Sand Lake Road
Anchorage, AK 99502-1845
Disclaimer
Credits
Glossary
Privacy Policy
About Us
Career Opportunities
Contact AAWU Internet Services Site last modified: April, 17th 2012